createdAt,value
2022-12-03T20:09:12.818Z,-1.13
2022-12-03T20:11:41.918Z,-1.12
2022-12-03T20:14:13.765Z,-1.07
2022-12-03T20:16:42.193Z,-1.01
2022-12-03T20:19:16.835Z,-0.94
2022-12-03T20:21:44.757Z,-0.84
2022-12-03T20:24:15.043Z,-0.75
2022-12-03T20:26:43.208Z,-0.66
2022-12-03T20:29:10.966Z,-0.58
2022-12-03T20:31:38.714Z,-0.52
2022-12-03T20:34:07.137Z,-0.49
2022-12-03T20:36:35.005Z,-0.44
2022-12-03T20:39:05.980Z,-0.41
2022-12-03T20:41:37.349Z,-0.39
2022-12-03T20:44:07.435Z,-0.34
2022-12-03T20:46:35.653Z,-0.27
2022-12-03T20:49:04.135Z,-0.22
2022-12-03T20:51:31.965Z,-0.19
2022-12-03T20:54:00.650Z,-0.17
2022-12-03T20:56:31.714Z,-0.13
2022-12-03T20:59:00.894Z,-0.12
2022-12-03T21:01:28.630Z,-0.12
2022-12-03T21:03:57.469Z,-0.11
2022-12-03T21:06:27.814Z,-0.08
2022-12-03T21:08:57.633Z,-0.01
2022-12-03T21:11:32.218Z,0.01
2022-12-03T21:14:00.322Z,0.02
2022-12-03T21:17:05.874Z,0.03
2022-12-03T21:19:20.358Z,-0.00
2022-12-03T21:21:48.456Z,-0.02
2022-12-03T21:24:16.300Z,-0.03
2022-12-03T21:26:44.991Z,-0.02
2022-12-03T21:29:14.077Z,0.01
2022-12-03T21:31:41.746Z,0.05
2022-12-03T21:34:09.410Z,0.09
2022-12-03T21:36:37.054Z,0.11
2022-12-03T21:39:05.816Z,0.14
2022-12-03T21:41:35.442Z,0.15
2022-12-03T21:44:03.777Z,0.15
2022-12-03T21:47:09.671Z,0.15
2022-12-03T21:49:20.259Z,0.17
2022-12-03T21:51:48.295Z,0.20
2022-12-03T21:54:15.992Z,0.23
2022-12-03T21:56:43.583Z,0.23
2022-12-03T21:59:11.176Z,0.20
2022-12-03T22:01:44.131Z,0.18
2022-12-03T22:04:14.702Z,0.18
2022-12-03T22:06:42.353Z,0.17
2022-12-03T22:09:09.974Z,0.15
2022-12-03T22:11:37.646Z,0.16
2022-12-03T22:14:06.900Z,0.16
2022-12-03T22:16:35.264Z,0.20
2022-12-03T22:19:04.071Z,0.23
2022-12-03T22:21:31.639Z,0.26
2022-12-03T22:23:59.684Z,0.25
2022-12-03T22:26:27.304Z,0.24
2022-12-03T22:28:55.114Z,0.24
2022-12-03T22:31:22.742Z,0.25
2022-12-03T22:33:50.486Z,0.26
2022-12-03T22:36:21.555Z,0.29
2022-12-03T22:38:51.018Z,0.33
2022-12-03T22:41:19.473Z,0.36
2022-12-03T22:43:48.230Z,0.40
2022-12-03T22:46:17.300Z,0.40
2022-12-03T22:48:46.210Z,0.40
2022-12-03T22:51:19.909Z,0.37
2022-12-03T22:53:48.196Z,0.36
2022-12-03T22:56:17.196Z,0.34
2022-12-03T22:58:44.820Z,0.33
2022-12-03T23:01:21.657Z,0.34
2022-12-03T23:03:49.507Z,0.36
2022-12-03T23:06:18.360Z,0.38
2022-12-03T23:08:46.626Z,0.42
2022-12-03T23:11:15.225Z,0.43
2022-12-03T23:13:43.403Z,0.44
2022-12-03T23:16:15.583Z,0.46
2022-12-03T23:18:43.961Z,0.47
2022-12-03T23:21:25.396Z,0.46
2022-12-03T23:23:57.373Z,0.45
2022-12-03T23:26:26.196Z,0.45
2022-12-03T23:28:54.293Z,0.44
2022-12-03T23:31:26.283Z,0.47
2022-12-03T23:33:55.713Z,0.49
2022-12-03T23:36:25.051Z,0.47
2022-12-03T23:38:53.295Z,0.45
2022-12-03T23:41:23.235Z,0.45
2022-12-03T23:43:51.733Z,0.44
2022-12-03T23:46:22.590Z,0.43
2022-12-03T23:48:51.609Z,0.41
2022-12-03T23:51:22.107Z,0.40
2022-12-03T23:53:50.187Z,0.38
2022-12-03T23:56:20.796Z,0.37
2022-12-03T23:58:48.698Z,0.39
